Time,TemperatureF,DewpointF,PressureIn,WindDirection,WindDirectionDegrees,WindSpeedMPH,WindSpeedGustMPH,Humidity,HourlyPrecipIn,Conditions,Clouds,dailyrainin,SoftwareType,DateUTC
2013-02-23 00:00:00,40.7,35.6,29.51,North,0,0.0,0.0,82,0.00,,,0.00,WUHU216HW,2013-02-23 08:00:00,
2013-02-23 00:05:00,40.7,35.6,29.52,SSE,158,3.6,3.6,82,0.00,,,0.00,WUHU216HW,2013-02-23 08:05:00,
2013-02-23 00:10:00,40.9,35.7,29.52,SSE,158,3.6,3.6,82,0.00,,,0.00,WUHU216HW,2013-02-23 08:10:00,
2013-02-23 00:15:00,40.9,35.7,29.52,SSE,158,3.6,3.6,82,0.00,,,0.00,WUHU216HW,2013-02-23 08:15:00,
2013-02-23 01:00:00,40.5,35.7,29.53,SSW,203,2.0,2.0,83,0.00,,,0.00,WUHU216HW,2013-02-23 09:00:00,
2013-02-23 01:05:00,40.5,35.7,29.53,SSW,203,2.0,2.0,83,0.00,,,0.00,WUHU216HW,2013-02-23 09:05:00,
2013-02-23 02:00:00,40.7,36.2,29.55,North,0,0.0,0.0,84,0.00,,,0.00,WUHU216HW,2013-02-23 10:00:00,
2013-02-23 02:05:00,40.7,36.2,29.55,North,0,0.0,0.0,84,0.00,,,0.00,WUHU216HW,2013-02-23 10:05:00,
2013-02-23 03:00:00,41.0,36.6,29.56,North,0,0.0,0.0,84,0.00,,,0.00,WUHU216HW,2013-02-23 11:00:00,
2013-02-23 03:05:00,41.0,36.6,29.56,North,0,0.0,0.0,84,0.00,,,0.00,WUHU216HW,2013-02-23 11:05:00,
2013-02-23 04:00:00,40.7,36.2,29.58,North,0,0.0,0.0,84,0.00,,,0.00,WUHU216HW,2013-02-23 12:00:00,
2013-02-23 04:05:00,40.7,36.2,29.58,North,0,0.0,0.0,84,0.00,,,0.00,WUHU216HW,2013-02-23 12:05:00,
2013-02-23 05:00:00,41.0,37.1,29.61,North,0,0.0,0.0,86,0.00,,,0.00,WUHU216HW,2013-02-23 13:00:00,
2013-02-23 05:05:00,41.0,37.1,29.61,North,0,0.0,0.0,86,0.00,,,0.00,WUHU216HW,2013-02-23 13:05:00,
2013-02-23 06:00:00,40.7,36.8,29.63,North,0,0.0,0.0,86,0.00,,,0.00,WUHU216HW,2013-02-23 14:00:00,
2013-02-23 06:05:00,40.7,36.8,29.63,North,0,0.0,0.0,86,0.00,,,0.00,WUHU216HW,2013-02-23 14:05:00,
2013-02-23 07:00:00,40.7,36.8,29.67,North,0,0.0,0.0,86,0.00,,,0.00,WUHU216HW,2013-02-23 15:00:00,
2013-02-23 07:05:00,40.7,36.8,29.67,North,0,0.0,0.0,86,0.00,,,0.00,WUHU216HW,2013-02-23 15:05:00,
2013-02-23 07:10:00,40.9,36.9,29.67,North,0,0.0,0.0,86,0.00,,,0.00,WUHU216HW,2013-02-23 15:10:00,
2013-02-23 07:15:00,40.9,36.9,29.68,North,0,0.0,0.0,86,0.00,,,0.00,WUHU216HW,2013-02-23 15:15:00,
2013-02-23 07:20:00,40.9,36.9,29.68,North,0,0.0,0.0,86,0.00,,,0.00,WUHU216HW,2013-02-23 15:20:00,
2013-02-23 07:25:00,40.9,36.9,29.68,North,0,0.0,0.0,86,0.00,,,0.00,WUHU216HW,2013-02-23 15:25:00,
2013-02-23 07:30:00,40.9,36.9,29.69,North,0,0.0,0.0,86,0.00,,,0.00,WUHU216HW,2013-02-23 15:30:00,
2013-02-23 07:35:00,40.9,36.9,29.69,North,0,0.0,0.0,86,0.00,,,0.00,WUHU216HW,2013-02-23 15:35:00,
2013-02-23 07:40:00,40.9,36.9,29.69,North,0,0.0,0.0,86,0.00,,,0.00,WUHU216HW,2013-02-23 15:40:00,
2013-02-23 07:45:00,40.9,36.9,29.69,North,0,0.0,0.0,86,0.00,,,0.00,WUHU216HW,2013-02-23 15:45:00,
2013-02-23 08:00:00,41.4,37.4,29.70,SSW,203,3.4,3.4,86,0.00,,,0.00,WUHU216HW,2013-02-23 16:00:00,
2013-02-23 08:05:00,41.4,37.4,29.70,SSW,203,3.4,3.4,86,0.00,,,0.00,WUHU216HW,2013-02-23 16:05:00,
2013-02-23 09:00:00,43.0,38.5,29.74,North,0,0.0,0.0,84,0.00,,,0.00,WUHU216HW,2013-02-23 17:00:00,
2013-02-23 09:05:00,42.8,38.4,29.74,North,0,0.0,0.0,84,0.00,,,0.00,WUHU216HW,2013-02-23 17:05:00,
2013-02-23 09:09:00,42.8,38.6,29.75,North,0,0.0,0.0,85,0.00,,,0.00,WUHU216HW,2013-02-23 17:09:00,
2013-02-23 09:10:00,42.8,38.6,29.75,North,0,0.0,0.0,85,0.00,,,0.00,WUHU216HW,2013-02-23 17:10:00,
2013-02-23 09:15:00,42.8,38.6,29.75,North,0,0.0,0.0,85,0.00,,,0.00,WUHU216HW,2013-02-23 17:15:00,
2013-02-23 10:00:00,43.6,38.7,29.77,North,0,0.0,0.0,83,0.00,,,0.00,WUHU216HW,2013-02-23 18:00:00,
2013-02-23 10:05:00,43.6,38.7,29.77,North,0,0.0,0.0,83,0.00,,,0.00,WUHU216HW,2013-02-23 18:05:00,
2013-02-23 11:00:00,46.3,40.1,29.80,North,0,0.0,0.0,79,0.00,,,0.00,WUHU216HW,2013-02-23 19:00:00,
2013-02-23 11:05:00,46.3,40.1,29.80,North,0,0.0,0.0,79,0.00,,,0.00,WUHU216HW,2013-02-23 19:05:00,
2013-02-23 12:00:00,49.5,40.9,29.82,North,0,0.0,0.0,72,0.00,,,0.00,WUHU216HW,2013-02-23 20:00:00,
2013-02-23 12:05:00,49.5,40.9,29.82,North,0,0.0,0.0,72,0.00,,,0.00,WUHU216HW,2013-02-23 20:05:00,
2013-02-23 13:00:00,50.4,40.7,29.82,SW,225,1.1,1.1,69,0.00,,,0.00,WUHU216HW,2013-02-23 21:00:00,
2013-02-23 13:05:00,50.4,40.7,29.82,SW,225,1.1,1.1,69,0.00,,,0.00,WUHU216HW,2013-02-23 21:05:00,
2013-02-23 14:00:00,52.9,41.4,29.83,South,180,3.8,3.8,65,0.00,,,0.00,WUHU216HW,2013-02-23 22:00:00,
2013-02-23 14:05:00,52.9,41.4,29.83,South,180,3.8,3.8,65,0.00,,,0.00,WUHU216HW,2013-02-23 22:05:00,
2013-02-23 15:00:00,52.7,40.4,29.86,West,270,2.5,2.5,63,0.01,,,0.00,WUHU216HW,2013-02-23 23:00:00,
2013-02-23 15:05:00,52.7,40.4,29.86,West,270,2.5,2.5,63,0.01,,,0.00,WUHU216HW,2013-02-23 23:05:00,
2013-02-23 16:00:00,51.1,41.0,29.88,ENE,68,2.5,2.5,68,0.00,,,0.02,WUHU216HW,2013-02-24 00:00:00,
2013-02-23 16:05:00,51.1,41.0,29.88,ENE,68,2.5,2.5,68,0.00,,,0.02,WUHU216HW,2013-02-24 00:05:00,
2013-02-23 16:11:00,50.6,40.9,29.87,NNE,23,2.9,2.9,69,0.00,,,0.02,WUHU216HW,2013-02-24 00:11:00,
2013-02-23 16:16:00,50.6,40.9,29.88,North,0,3.1,4.5,69,0.00,,,0.02,WUHU216HW,2013-02-24 00:16:00,
2013-02-23 16:20:00,50.8,41.1,29.88,North,0,1.3,1.3,69,0.00,,,0.02,WUHU216HW,2013-02-24 00:20:00,
2013-02-23 16:21:00,50.8,41.1,29.88,NNE,18,1.6,4.5,69,0.00,,,0.02,WUHU216HW,2013-02-24 00:21:00,
2013-02-23 16:26:00,50.8,41.1,29.88,North,0,1.3,4.3,69,0.00,,,0.02,WUHU216HW,2013-02-24 00:26:00,
2013-02-23 17:00:00,49.3,40.0,29.88,NNE,23,1.6,1.6,70,0.00,,,0.02,WUHU216HW,2013-02-24 01:00:00,
2013-02-23 17:05:00,49.1,39.8,29.88,ENE,68,1.8,1.8,70,0.00,,,0.02,WUHU216HW,2013-02-24 01:05:00,
2013-02-23 17:10:00,49.0,40.0,29.88,NNE,30,1.8,2.5,71,0.00,,,0.02,WUHU216HW,2013-02-24 01:10:00,
2013-02-23 17:15:00,48.6,39.6,29.88,NNE,23,0.5,2.5,71,0.00,,,0.02,WUHU216HW,2013-02-24 01:15:00,
2013-02-23 17:20:00,48.2,39.6,29.88,NNE,23,1.6,3.1,72,0.00,,,0.02,WUHU216HW,2013-02-24 01:20:00,
2013-02-23 17:25:00,48.1,39.4,29.89,ESE,113,1.1,3.1,72,0.00,,,0.02,WUHU216HW,2013-02-24 01:25:00,
2013-02-23 17:30:00,47.9,39.2,29.89,North,0,0.4,1.1,72,0.00,,,0.02,WUHU216HW,2013-02-24 01:30:00,
2013-02-23 17:35:00,47.5,38.9,29.90,NE,45,0.4,0.9,72,0.00,,,0.02,WUHU216HW,2013-02-24 01:35:00,
2013-02-23 17:40:00,47.3,39.1,29.90,NNE,23,0.4,1.3,73,0.00,,,0.02,WUHU216HW,2013-02-24 01:40:00,
2013-02-23 17:45:00,47.2,39.0,29.90,NE,51,0.3,1.3,73,0.00,,,0.02,WUHU216HW,2013-02-24 01:45:00,
2013-02-23 17:50:00,46.8,39.0,29.90,NNE,23,1.8,1.8,74,0.00,,,0.02,WUHU216HW,2013-02-24 01:50:00,
2013-02-23 17:55:00,46.6,38.8,29.91,East,98,0.7,1.8,74,0.00,,,0.02,WUHU216HW,2013-02-24 01:55:00,
2013-02-23 18:00:00,46.4,39.0,29.91,ESE,113,1.3,1.8,75,0.00,,,0.02,WUHU216HW,2013-02-24 02:00:00,
2013-02-23 18:05:00,46.1,38.6,29.91,East,90,0.7,2.0,75,0.00,,,0.02,WUHU216HW,2013-02-24 02:05:00,
2013-02-23 18:10:00,45.9,38.4,29.91,East,89,1.2,2.2,75,0.00,,,0.02,WUHU216HW,2013-02-24 02:10:00,
2013-02-23 18:11:00,45.7,38.3,29.91,ESE,113,0.2,0.2,75,0.00,,,0.02,WUHU216HW,2013-02-24 02:11:00,
2013-02-23 18:15:00,45.7,38.3,29.91,ESE,113,0.2,2.2,75,0.00,,,0.02,WUHU216HW,2013-02-24 02:15:00,
2013-02-23 18:20:00,45.7,38.3,29.91,ESE,113,0.2,0.2,75,0.00,,,0.02,WUHU216HW,2013-02-24 02:20:00,
2013-02-23 19:00:00,45.4,37.9,29.93,NNE,23,2.5,2.5,75,0.00,,,0.02,WUHU216HW,2013-02-24 03:00:00,
2013-02-23 19:05:00,45.4,37.9,29.93,NNE,25,1.9,3.4,75,0.00,,,0.02,WUHU216HW,2013-02-24 03:05:00,
2013-02-23 19:10:00,45.4,37.9,29.93,East,90,2.0,4.0,75,0.00,,,0.02,WUHU216HW,2013-02-24 03:10:00,
2013-02-23 19:15:00,45.4,37.9,29.94,NNE,19,1.4,4.0,75,0.00,,,0.02,WUHU216HW,2013-02-24 03:15:00,
2013-02-23 19:20:00,45.4,37.9,29.94,ESE,113,1.8,4.0,75,0.00,,,0.02,WUHU216HW,2013-02-24 03:20:00,
2013-02-23 19:25:00,45.2,37.7,29.93,ENE,68,1.8,4.0,75,0.00,,,0.02,WUHU216HW,2013-02-24 03:25:00,
2013-02-23 19:30:00,45.2,37.7,29.94,NE,48,0.9,2.5,75,0.00,,,0.02,WUHU216HW,2013-02-24 03:30:00,
2013-02-23 19:35:00,45.2,37.7,29.94,ENE,57,1.0,2.5,75,0.00,,,0.02,WUHU216HW,2013-02-24 03:35:00,
2013-02-23 19:40:00,45.2,38.1,29.94,NNE,23,1.1,2.2,76,0.00,,,0.02,WUHU216HW,2013-02-24 03:40:00,
2013-02-23 19:45:00,45.2,38.1,29.94,ESE,113,0.9,2.0,76,0.00,,,0.02,WUHU216HW,2013-02-24 03:45:00,
2013-02-23 19:49:00,45.2,38.1,29.95,ESE,113,0.4,0.4,76,0.00,,,0.02,WUHU216HW,2013-02-24 03:49:00,
2013-02-23 19:50:00,45.2,38.1,29.95,ESE,107,1.4,2.5,76,0.00,,,0.02,WUHU216HW,2013-02-24 03:50:00,
2013-02-23 19:55:00,45.2,38.1,29.95,ESE,113,0.4,2.5,76,0.00,,,0.02,WUHU216HW,2013-02-24 03:55:00,
2013-02-23 20:00:00,45.2,38.1,29.96,SE,135,1.1,1.1,76,0.00,,,0.02,WUHU216HW,2013-02-24 04:00:00,
2013-02-23 20:05:00,45.2,38.1,29.96,SE,135,1.1,1.1,76,0.00,,,0.02,WUHU216HW,2013-02-24 04:05:00,
2013-02-23 21:00:00,44.1,37.7,29.97,SE,135,0.7,0.7,78,0.00,,,0.02,WUHU216HW,2013-02-24 05:00:00,
2013-02-23 21:05:00,44.1,37.7,29.97,SE,135,0.7,0.7,78,0.00,,,0.02,WUHU216HW,2013-02-24 05:05:00,
2013-02-23 22:00:00,43.0,35.3,29.97,SSE,158,0.4,0.4,74,0.00,,,0.02,WUHU216HW,2013-02-24 06:00:00,
2013-02-23 22:05:00,43.0,35.3,29.97,SSE,158,0.4,0.4,74,0.00,,,0.02,WUHU216HW,2013-02-24 06:05:00,
2013-02-23 23:00:00,42.5,35.5,29.99,SSE,158,1.1,1.1,76,0.00,,,0.02,WUHU216HW,2013-02-24 07:00:00,
2013-02-23 23:05:00,42.5,35.5,29.99,SSE,158,1.1,1.1,76,0.00,,,0.02,WUHU216HW,2013-02-24 07:05:00,